createdAt,value
2019-02-12T00:01:12.531Z,101256.56
2019-02-12T00:03:59.029Z,101261.30
2019-02-12T00:06:26.876Z,101261.30
2019-02-12T00:08:54.539Z,101263.34
2019-02-12T00:11:41.335Z,101265.08
2019-02-12T00:14:12.175Z,101265.08
2019-02-12T00:16:58.934Z,101251.48
2019-02-12T00:19:26.573Z,101251.48
2019-02-12T00:22:08.334Z,101258.91
2019-02-12T00:24:24.017Z,101260.22
2019-02-12T00:27:10.494Z,101264.58
2019-02-12T00:29:38.142Z,101268.05
2019-02-12T00:32:24.608Z,101283.59
2019-02-12T00:34:52.338Z,101283.59
2019-02-12T00:37:20.016Z,101280.02
2019-02-12T00:40:06.492Z,101286.90
2019-02-12T00:42:34.277Z,101284.48
2019-02-12T00:45:04.213Z,101284.48
2019-02-12T00:47:31.947Z,101281.78
2019-02-12T00:50:18.462Z,101277.36
2019-02-12T00:52:46.120Z,101288.33
2019-02-12T00:55:13.885Z,101289.69
2019-02-12T00:57:41.955Z,101289.69
2019-02-12T01:00:28.431Z,101293.23
2019-02-12T01:02:56.123Z,101289.35
2019-02-12T01:05:26.339Z,101291.77
2019-02-12T01:07:56.322Z,101297.81
2019-02-12T01:10:42.832Z,101292.43
2019-02-12T01:13:29.258Z,101300.46
2019-02-12T01:15:56.915Z,101300.46
2019-02-12T01:18:43.416Z,101297.66
2019-02-12T01:21:13.855Z,101305.98
2019-02-12T01:24:00.615Z,101310.49
2019-02-12T01:26:47.050Z,101304.48
2019-02-12T01:29:17.333Z,101304.48
2019-02-12T01:32:03.803Z,101306.70
2019-02-12T01:34:31.390Z,101306.70
2019-02-12T01:37:18.140Z,101314.28
2019-02-12T01:39:46.130Z,101314.28
2019-02-12T01:42:13.894Z,101323.23
2019-02-12T01:44:41.555Z,101329.01
2019-02-12T01:47:28.036Z,101325.33
2019-02-12T01:52:30.132Z,101318.59
2019-02-12T01:55:16.647Z,101318.59
2019-02-12T01:58:03.153Z,101317.91
2019-02-12T02:03:09.632Z,101319.02
2019-02-12T02:05:56.142Z,101319.83
2019-02-12T02:08:23.902Z,101325.47
2019-02-12T02:11:10.648Z,101321.48
2019-02-12T02:13:38.372Z,101321.48
2019-02-12T02:16:06.533Z,101317.02
2019-02-12T02:18:34.209Z,101318.75
2019-02-12T02:26:32.424Z,101328.77
2019-02-12T02:29:18.903Z,101321.37
2019-02-12T02:31:46.592Z,101319.15
2019-02-12T02:34:14.247Z,101319.15
2019-02-12T02:36:42.012Z,101320.94
2019-02-12T02:39:28.430Z,101320.94
2019-02-12T02:41:56.377Z,101321.75
2019-02-12T02:44:23.957Z,101326.10
2019-02-12T02:46:51.586Z,101337.05
2019-02-12T02:49:38.116Z,101340.08
2019-02-12T02:52:08.227Z,101344.03
2019-02-12T02:54:57.080Z,101344.84
2019-02-12T02:57:25.207Z,101344.84
2019-02-12T03:00:11.969Z,101345.69
2019-02-12T03:02:39.558Z,101345.69
2019-02-12T03:05:07.285Z,101345.20
2019-02-12T03:07:35.051Z,101344.37
2019-02-12T03:10:22.016Z,101354.50
2019-02-12T03:12:51.263Z,101352.84
2019-02-12T03:15:19.027Z,101354.70
2019-02-12T03:18:07.127Z,101360.11
2019-02-12T03:20:53.902Z,101365.81
2019-02-12T03:23:21.538Z,101365.81
2019-02-12T03:25:49.303Z,101374.22
2019-02-12T03:28:35.993Z,101361.05
2019-02-12T03:31:22.497Z,101363.50
2019-02-12T03:33:50.274Z,101363.50
2019-02-12T03:36:36.782Z,101381.52
2019-02-12T03:39:05.264Z,101375.10
2019-02-12T03:41:33.030Z,101375.10
2019-02-12T03:44:00.688Z,101375.61
2019-02-12T03:46:47.163Z,101384.50
2019-02-12T03:49:33.904Z,101376.61
2019-02-12T03:52:20.397Z,101377.05
2019-02-12T03:55:06.850Z,101380.55
2019-02-12T03:57:53.327Z,101372.16
2019-02-12T04:00:20.976Z,101372.16
2019-02-12T04:02:48.734Z,101379.95
2019-02-12T04:05:35.179Z,101372.66
2019-02-12T04:08:02.898Z,101372.66
2019-02-12T04:10:30.662Z,101384.81
2019-02-12T04:13:17.143Z,101370.74
2019-02-12T04:15:44.822Z,101369.02
2019-02-12T04:18:12.936Z,101370.34
2019-02-12T04:20:59.441Z,101365.48
2019-02-12T04:23:45.943Z,101367.33
2019-02-12T04:26:13.570Z,101367.33
2019-02-12T04:29:00.065Z,101366.80
2019-02-12T04:31:27.735Z,101366.80
2019-02-12T04:33:55.471Z,101373.06
2019-02-12T04:36:23.245Z,101368.34
2019-02-12T04:39:09.663Z,101364.64
2019-02-12T04:41:58.182Z,101360.78
2019-02-12T04:44:44.649Z,101362.69
2019-02-12T04:47:31.117Z,101368.50
2019-02-12T04:49:58.773Z,101368.50
2019-02-12T04:52:45.267Z,101369.82
2019-02-12T04:55:12.960Z,101372.33
2019-02-12T04:57:59.714Z,101376.16
2019-02-12T05:00:27.487Z,101373.47
2019-02-12T05:02:55.408Z,101376.09
2019-02-12T05:05:43.534Z,101376.09
2019-02-12T05:08:11.204Z,101373.52
2019-02-12T05:10:38.838Z,101379.28
2019-02-12T05:13:25.347Z,101382.41
2019-02-12T05:15:53.113Z,101382.41
2019-02-12T05:18:20.768Z,101383.34
2019-02-12T05:21:07.638Z,101383.97
2019-02-12T05:23:35.456Z,101383.97
2019-02-12T05:26:22.193Z,101383.73
2019-02-12T05:28:49.833Z,101383.73
2019-02-12T05:31:17.558Z,101384.69
2019-02-12T05:34:16.093Z,101394.41
2019-02-12T05:39:26.357Z,101401.48
2019-02-12T05:41:53.975Z,101400.25
2019-02-12T05:44:40.505Z,101406.01
2019-02-12T05:47:08.181Z,101397.73
2019-02-12T05:49:54.718Z,101401.70
2019-02-12T05:52:41.238Z,101401.69
2019-02-12T05:55:27.670Z,101403.37
2019-02-12T05:57:55.331Z,101401.16
2019-02-12T06:03:30.452Z,101407.63
2019-02-12T06:09:03.274Z,101403.62
2019-02-12T06:11:33.220Z,101398.72
2019-02-12T06:14:19.704Z,101401.31
2019-02-12T06:17:06.166Z,101410.78
2019-02-12T06:19:55.114Z,101410.78
2019-02-12T06:22:22.708Z,101405.84
2019-02-12T06:28:13.334Z,101415.70
2019-02-12T06:30:49.640Z,101416.92
2019-02-12T06:33:17.283Z,101416.92
2019-02-12T06:35:45.229Z,101425.95
2019-02-12T06:38:12.886Z,101425.95
2019-02-12T06:40:59.406Z,101427.56
2019-02-12T06:43:45.840Z,101429.25
2019-02-12T06:46:13.524Z,101429.25
2019-02-12T06:54:24.187Z,101432.52
2019-02-12T06:56:52.228Z,101436.41
2019-02-12T07:02:09.360Z,101447.48
2019-02-12T07:04:49.068Z,101447.41
2019-02-12T07:07:25.537Z,101447.41
2019-02-12T07:10:12.410Z,101452.59
2019-02-12T07:12:58.889Z,101455.88
2019-02-12T07:15:26.587Z,101459.30
2019-02-12T07:18:13.014Z,101464.09
2019-02-12T07:20:40.741Z,101464.09
2019-02-12T07:23:27.222Z,101475.81
2019-02-12T07:26:07.068Z,101475.81
2019-02-12T07:28:24.641Z,101473.09
2019-02-12T07:30:52.404Z,101481.34
2019-02-12T07:33:24.154Z,101486.91
2019-02-12T07:36:03.939Z,101486.41
2019-02-12T07:38:21.414Z,101490.61
2019-02-12T07:40:51.951Z,101490.61
2019-02-12T07:43:38.468Z,101498.39
2019-02-12T07:46:06.224Z,101499.17
2019-02-12T07:48:33.886Z,101504.34
2019-02-12T07:51:20.759Z,101501.14
2019-02-12T07:54:07.201Z,101517.29
2019-02-12T08:07:32.684Z,101532.64
2019-02-12T08:10:09.110Z,101535.15
2019-02-12T08:12:36.975Z,101544.68
2019-02-12T08:15:07.215Z,101544.68
2019-02-12T08:17:34.899Z,101536.70
2019-02-12T08:20:21.378Z,101545.67
2019-02-12T08:23:10.793Z,101547.25
2019-02-12T08:25:38.800Z,101555.87
2019-02-12T08:28:06.420Z,101555.87
2019-02-12T08:30:34.076Z,101558.17
2019-02-12T08:33:04.014Z,101558.17
2019-02-12T08:35:31.660Z,101555.84
2019-02-12T08:37:59.394Z,101558.33
2019-02-12T08:40:45.869Z,101554.06
2019-02-12T08:46:20.413Z,101562.09
2019-02-12T08:52:12.065Z,101560.23
2019-02-12T08:54:42.294Z,101575.41
2019-02-12T08:57:28.770Z,101576.59
2019-02-12T09:00:13.875Z,101576.59
2019-02-12T09:03:00.403Z,101583.04
2019-02-12T09:05:28.367Z,101583.04
2019-02-12T09:07:55.977Z,101578.23
2019-02-12T09:10:26.812Z,101585.28
2019-02-12T09:12:54.602Z,101585.28
2019-02-12T09:15:23.969Z,101582.64
2019-02-12T09:18:10.445Z,101580.84
2019-02-12T09:23:29.543Z,101599.65
2019-02-12T09:26:16.569Z,101599.61
2019-02-12T09:28:44.429Z,101599.61
2019-02-12T09:33:47.862Z,101604.71
2019-02-12T09:36:17.759Z,101605.12
2019-02-12T09:41:38.608Z,101599.28
2019-02-12T09:46:44.218Z,101609.52
2019-02-12T09:49:11.809Z,101606.14
2019-02-12T09:51:41.145Z,101611.56
2019-02-12T09:57:21.085Z,101596.74
2019-02-12T10:00:08.256Z,101602.22
2019-02-12T10:02:36.929Z,101599.48
2019-02-12T10:05:07.357Z,101605.32
2019-02-12T10:07:47.219Z,101605.32
2019-02-12T10:10:04.345Z,101603.16
2019-02-12T10:13:03.238Z,101609.65
2019-02-12T10:15:20.121Z,101608.98
2019-02-12T10:17:49.711Z,101611.83
2019-02-12T10:23:55.161Z,101612.40
2019-02-12T10:25:54.455Z,101613.92
2019-02-12T10:28:48.773Z,101617.25
2019-02-12T10:31:15.131Z,101617.41
2019-02-12T10:34:01.621Z,101619.73
2019-02-12T10:36:48.111Z,101621.25
2019-02-12T10:39:34.562Z,101618.00
2019-02-12T10:42:21.044Z,101624.97
2019-02-12T10:47:54.202Z,101624.13
2019-02-12T10:50:40.654Z,101618.14
2019-02-12T10:53:29.602Z,101626.63
2019-02-12T10:56:16.625Z,101630.78
2019-02-12T10:58:44.677Z,101622.67
2019-02-12T11:01:12.285Z,101621.09
2019-02-12T11:03:58.771Z,101621.09
2019-02-12T11:06:26.796Z,101616.39
2019-02-12T11:08:54.500Z,101616.39
2019-02-12T11:11:22.379Z,101615.55
2019-02-12T11:16:55.444Z,101601.01
2019-02-12T11:22:11.354Z,101609.80
2019-02-12T11:24:39.038Z,101599.32
2019-02-12T11:27:06.696Z,101600.88
2019-02-12T11:29:34.753Z,101602.30
2019-02-12T11:34:53.149Z,101597.01
2019-02-12T11:37:22.493Z,101594.98
2019-02-12T11:40:09.005Z,101597.09
2019-02-12T11:42:37.095Z,101589.26
2019-02-12T11:45:04.789Z,101588.22
2019-02-12T11:47:51.268Z,101581.69
2019-02-12T11:53:10.961Z,101579.31
2019-02-12T11:55:38.674Z,101579.31
2019-02-12T11:58:06.368Z,101580.13
2019-02-12T12:00:52.842Z,101588.31
2019-02-12T12:14:08.445Z,101578.80
2019-02-12T12:16:55.073Z,101573.22
2019-02-12T12:19:24.361Z,101573.22
2019-02-12T12:21:52.017Z,101578.08
2019-02-12T12:24:51.693Z,101588.41
2019-02-12T12:27:07.815Z,101581.92
2019-02-12T12:29:37.777Z,101589.44
2019-02-12T12:32:07.054Z,101590.25
2019-02-12T12:34:34.733Z,101595.05
2019-02-12T12:37:02.766Z,101595.05
2019-02-12T12:39:30.436Z,101589.58
2019-02-12T12:42:05.670Z,101590.17
2019-02-12T12:44:38.900Z,101582.53
2019-02-12T12:47:06.553Z,101581.75
2019-02-12T12:49:34.150Z,101590.02
2019-02-12T12:52:02.105Z,101590.02
2019-02-12T12:54:29.691Z,101590.75
2019-02-12T12:56:57.363Z,101583.49
2019-02-12T12:59:25.276Z,101586.88
2019-02-12T13:01:53.742Z,101583.34
2019-02-12T13:04:21.377Z,101584.45
2019-02-12T13:06:49.316Z,101584.45
2019-02-12T13:09:17.067Z,101591.33
2019-02-12T13:11:44.663Z,101594.56
2019-02-12T13:14:12.712Z,101594.56
2019-02-12T13:16:40.318Z,101597.14
2019-02-12T13:19:10.063Z,101597.14
2019-02-12T13:21:40.801Z,101605.53
2019-02-12T13:24:08.414Z,101598.47
2019-02-12T13:26:39.097Z,101598.47
2019-02-12T13:29:07.005Z,101602.44
2019-02-12T13:31:34.678Z,101603.33
2019-02-12T13:34:03.373Z,101600.42
2019-02-12T13:36:35.092Z,101600.42
2019-02-12T13:39:05.334Z,101599.63
2019-02-12T13:41:36.421Z,101601.01
2019-02-12T13:44:05.750Z,101607.68
2019-02-12T13:46:33.407Z,101597.08
2019-02-12T13:49:01.381Z,101596.63
2019-02-12T13:51:29.062Z,101590.80
2019-02-12T13:53:56.820Z,101598.17
2019-02-12T13:56:25.553Z,101598.12
2019-02-12T13:58:53.158Z,101590.62
2019-02-12T14:01:21.182Z,101596.13
2019-02-12T14:03:50.696Z,101596.13
2019-02-12T14:06:18.332Z,101593.77
2019-02-12T14:08:50.692Z,101593.77
2019-02-12T14:11:18.335Z,101602.06
2019-02-12T14:13:46.306Z,101602.06
2019-02-12T14:16:18.962Z,101610.95
2019-02-12T14:18:48.851Z,101605.75
2019-02-12T14:21:21.094Z,101613.88
2019-02-12T14:23:49.468Z,101619.66
2019-02-12T14:26:17.112Z,101619.66
2019-02-12T14:28:49.442Z,101619.77
2019-02-12T14:31:17.252Z,101618.44
2019-02-12T14:33:46.871Z,101611.77
2019-02-12T14:36:25.883Z,101613.04
2019-02-12T14:38:53.593Z,101608.14
2019-02-12T14:41:24.482Z,101619.13
2019-02-12T14:43:52.147Z,101619.13
2019-02-12T14:46:20.287Z,101617.75
2019-02-12T14:48:48.333Z,101611.25
2019-02-12T14:51:16.007Z,101600.13
2019-02-12T14:53:43.612Z,101602.38
2019-02-12T14:56:11.687Z,101602.38
2019-02-12T14:58:46.944Z,101592.92
2019-02-12T15:01:17.569Z,101594.19
2019-02-12T15:03:45.499Z,101594.19
2019-02-12T15:06:13.178Z,101591.52
2019-02-12T15:08:42.221Z,101603.23
2019-02-12T15:11:09.879Z,101602.28
2019-02-12T15:13:37.546Z,101599.12
2019-02-12T15:16:08.510Z,101601.16
2019-02-12T15:18:36.134Z,101602.36
2019-02-12T15:21:04.094Z,101607.74
2019-02-12T15:23:33.870Z,101597.84
2019-02-12T15:26:04.578Z,101594.85
2019-02-12T15:28:34.257Z,101592.76
2019-02-12T15:31:01.967Z,101592.76
2019-02-12T15:33:29.639Z,101585.11
2019-02-12T15:36:00.577Z,101596.44
2019-02-12T15:38:31.272Z,101596.22
2019-02-12T15:40:58.886Z,101596.22
2019-02-12T15:43:26.846Z,101603.52
2019-02-12T15:45:54.465Z,101592.69
2019-02-12T15:48:24.426Z,101609.36
2019-02-12T15:50:58.926Z,101609.36
2019-02-12T15:53:28.491Z,101610.05
2019-02-12T15:56:02.535Z,101616.83
2019-02-12T15:58:31.519Z,101616.83
2019-02-12T16:01:04.476Z,101622.09
2019-02-12T16:03:34.016Z,101615.43
2019-02-12T16:06:02.019Z,101615.26
2019-02-12T16:08:30.488Z,101615.26
2019-02-12T16:11:03.573Z,101622.11
2019-02-12T16:13:33.112Z,101614.92
2019-02-12T16:16:02.458Z,101613.42
2019-02-12T16:18:29.967Z,101630.57
2019-02-12T16:20:57.631Z,101630.57
2019-02-12T16:23:25.288Z,101629.95
2019-02-12T16:25:59.447Z,101621.87
2019-02-12T16:28:35.445Z,101617.53
2019-02-12T16:31:00.566Z,101614.34
2019-02-12T16:33:28.185Z,101620.36
2019-02-12T16:35:55.902Z,101633.91
2019-02-12T16:38:23.962Z,101633.91
2019-02-12T16:40:53.191Z,101635.59
2019-02-12T16:43:23.316Z,101643.84
2019-02-12T16:45:51.206Z,101647.63
2019-02-12T16:48:24.778Z,101651.02
2019-02-12T16:50:55.449Z,101656.09
2019-02-12T16:53:25.337Z,101653.59
2019-02-12T16:55:53.724Z,101653.59
2019-02-12T16:58:21.406Z,101658.45
2019-02-12T17:00:56.982Z,101658.45
2019-02-12T17:03:20.463Z,101664.68
2019-02-12T17:05:51.088Z,101667.02
2019-02-12T17:08:19.302Z,101680.30
2019-02-12T17:10:49.687Z,101679.67
2019-02-12T17:13:17.452Z,101692.57
2019-02-12T17:15:48.135Z,101698.44
2019-02-12T17:18:16.008Z,101703.88
2019-02-12T17:20:43.689Z,101703.88
2019-02-12T17:23:44.641Z,101708.02
2019-02-12T17:25:59.484Z,101705.91
2019-02-12T17:29:00.042Z,101705.20
2019-02-12T17:31:15.209Z,101707.09
2019-02-12T17:34:01.691Z,101701.20
2019-02-12T17:36:29.339Z,101703.59
2019-02-12T17:44:57.385Z,101718.58
2019-02-12T17:47:24.983Z,101718.58
2019-02-12T17:49:52.655Z,101714.81
2019-02-12T17:52:39.090Z,101714.81
2019-02-12T17:55:07.350Z,101718.39
2019-02-12T18:05:49.437Z,101726.42
2019-02-12T18:08:22.603Z,101733.11
2019-02-12T18:11:10.001Z,101733.11
2019-02-12T18:13:56.463Z,101730.91
2019-02-12T18:16:42.945Z,101730.91
2019-02-12T18:19:10.628Z,101732.20
2019-02-12T18:21:58.774Z,101723.85
2019-02-12T18:24:28.817Z,101723.85
2019-02-12T18:26:56.803Z,101724.26
2019-02-12T18:29:24.466Z,101725.11
2019-02-12T18:31:52.104Z,101724.16
2019-02-12T18:34:53.611Z,101718.89
2019-02-12T18:40:14.071Z,101710.55
2019-02-12T18:42:41.744Z,101710.55
2019-02-12T18:45:09.406Z,101711.80
2019-02-12T18:48:10.340Z,101707.03
2019-02-12T18:53:30.452Z,101704.42
2019-02-12T18:55:58.153Z,101710.16
2019-02-12T18:58:58.793Z,101707.56
2019-02-12T19:01:16.286Z,101703.48
2019-02-12T19:04:02.741Z,101710.36
2019-02-12T19:06:30.467Z,101704.55
2019-02-12T19:12:03.365Z,101703.20
2019-02-12T19:17:36.267Z,101706.75
2019-02-12T19:20:22.724Z,101708.50
2019-02-12T19:23:09.224Z,101708.50
2019-02-12T19:25:58.237Z,101705.02
2019-02-12T19:28:25.899Z,101696.23
2019-02-12T19:31:12.402Z,101697.61
2019-02-12T19:33:51.726Z,101697.61
2019-02-12T19:36:28.251Z,101695.38
2019-02-12T19:38:56.058Z,101688.81
2019-02-12T19:41:56.952Z,101683.98
2019-02-12T19:44:14.385Z,101687.59
2019-02-12T19:46:42.294Z,101703.04
2019-02-12T19:49:09.963Z,101701.37
2019-02-12T19:51:37.717Z,101701.37
2019-02-12T19:54:31.684Z,101710.55
2019-02-12T19:59:56.395Z,101713.88
2019-02-12T20:02:24.008Z,101708.47
2019-02-12T20:05:13.347Z,101717.14
2019-02-12T20:07:53.145Z,101712.17
2019-02-12T20:10:29.177Z,101712.17
2019-02-12T20:13:18.110Z,101713.97
2019-02-12T20:16:04.581Z,101713.97
2019-02-12T20:18:32.188Z,101714.00
2019-02-12T20:21:18.690Z,101709.13
2019-02-12T20:23:46.459Z,101713.18
2019-02-12T20:26:14.336Z,101713.18
2019-02-12T20:28:42.302Z,101722.95
2019-02-12T20:31:28.808Z,101720.34
2019-02-12T20:33:57.205Z,101720.34
2019-02-12T20:36:30.432Z,101715.09
2019-02-12T20:38:59.937Z,101715.98
2019-02-12T20:44:34.476Z,101713.34
2019-02-12T20:47:20.993Z,101718.20
2019-02-12T20:50:07.554Z,101706.34
2019-02-12T20:53:06.084Z,101701.44
2019-02-12T20:55:54.971Z,101701.44
2019-02-12T20:58:13.231Z,101698.73
2019-02-12T21:01:13.859Z,101703.23
2019-02-12T21:03:31.348Z,101703.23
2019-02-12T21:06:20.811Z,101694.13
2019-02-12T21:18:05.341Z,101713.09
2019-02-12T21:21:09.483Z,101718.86
2019-02-12T21:29:59.649Z,101713.91
2019-02-12T21:35:56.784Z,101721.81
2019-02-12T21:38:26.631Z,101721.81
2019-02-12T21:41:04.346Z,101729.28
2019-02-12T21:49:18.191Z,101731.11
2019-02-12T21:54:51.862Z,101725.77
2019-02-12T22:12:30.927Z,101755.39
2019-02-12T22:18:02.815Z,101753.66
2019-02-12T22:20:49.257Z,101759.37
2019-02-12T22:34:26.428Z,101760.00
2019-02-12T22:37:15.962Z,101770.30
2019-02-12T22:40:19.749Z,101772.81
2019-02-12T22:42:37.239Z,101772.81
2019-02-12T22:45:22.359Z,101783.66
2019-02-12T22:50:47.387Z,101797.31
2019-02-12T22:56:51.217Z,101793.03
2019-02-12T22:59:40.946Z,101789.41
2019-02-12T23:05:05.948Z,101785.83
2019-02-12T23:08:08.350Z,101772.22
2019-02-12T23:10:45.925Z,101772.22
2019-02-12T23:13:32.382Z,101765.25
2019-02-12T23:16:21.891Z,101772.39
2019-02-12T23:19:10.238Z,101773.40
2019-02-12T23:21:56.758Z,101773.40
2019-02-12T23:24:43.187Z,101763.92
2019-02-12T23:30:16.300Z,101766.59
2019-02-12T23:41:00.268Z,101781.52
2019-02-12T23:46:19.500Z,101780.77
2019-02-12T23:49:05.960Z,101780.86
2019-02-12T23:51:38.723Z,101780.86
2019-02-12T23:54:25.180Z,101786.17
2019-02-12T23:56:52.883Z,101788.37
2019-02-12T23:59:39.618Z,101789.56
